createdAt,value
2023-02-02T00:02:44.018Z,41.87
2023-02-02T00:07:52.739Z,41.58
2023-02-02T00:13:01.943Z,41.47
2023-02-02T00:18:09.565Z,41.20
2023-02-02T00:23:17.624Z,41.93
2023-02-02T00:28:24.780Z,41.00
2023-02-02T00:33:32.068Z,40.85
2023-02-02T00:38:38.917Z,41.57
2023-02-02T00:48:54.582Z,40.50
2023-02-02T00:54:02.540Z,40.73
2023-02-02T00:59:09.498Z,41.40
2023-02-02T01:04:17.731Z,40.78
2023-02-02T01:09:25.068Z,41.02
2023-02-02T01:14:32.083Z,41.60
2023-02-02T01:19:39.978Z,41.57
2023-02-02T01:24:46.624Z,40.83
2023-02-02T01:29:54.285Z,41.07
2023-02-02T01:35:02.898Z,41.30
2023-02-02T01:40:12.558Z,40.80
2023-02-02T01:45:31.873Z,41.75
2023-02-02T01:50:39.790Z,41.27
2023-02-02T01:55:49.405Z,41.83
2023-02-02T02:00:56.570Z,42.80
2023-02-02T02:06:17.714Z,41.03
2023-02-02T02:11:26.490Z,41.20
2023-02-02T02:17:06.381Z,40.73
2023-02-02T02:22:37.543Z,41.40
2023-02-02T02:28:24.054Z,42.13
2023-02-02T02:33:39.295Z,41.95
2023-02-02T02:39:29.980Z,42.00
2023-02-02T02:44:39.036Z,41.70
2023-02-02T02:49:48.039Z,41.37
2023-02-02T02:54:59.771Z,41.48
2023-02-02T03:00:32.085Z,41.10
2023-02-02T03:06:01.250Z,41.57
2023-02-02T03:11:11.505Z,41.27
2023-02-02T03:16:18.846Z,41.77
2023-02-02T03:21:26.496Z,41.10
2023-02-02T03:26:33.659Z,41.40
2023-02-02T03:31:40.419Z,40.93
2023-02-02T03:41:54.099Z,41.47
2023-02-02T03:47:01.381Z,41.73
2023-02-02T03:57:15.273Z,41.08
2023-02-02T04:02:22.671Z,41.13
2023-02-02T04:07:30.963Z,41.20
2023-02-02T04:12:38.229Z,41.30
2023-02-02T04:17:45.366Z,41.57
2023-02-02T04:22:52.379Z,41.37
2023-02-02T04:28:00.415Z,41.13
2023-02-02T04:33:07.918Z,41.88
2023-02-02T04:38:14.840Z,41.40
2023-02-02T04:43:21.696Z,41.37
2023-02-02T04:48:29.115Z,41.85
2023-02-02T04:53:36.409Z,41.37
2023-02-02T04:58:43.425Z,41.23
2023-02-02T05:08:56.542Z,41.40
2023-02-02T05:14:03.991Z,41.47
2023-02-02T05:19:12.885Z,42.03
2023-02-02T05:24:20.411Z,41.80
2023-02-02T05:29:28.880Z,41.15
2023-02-02T05:34:36.098Z,41.17
2023-02-02T05:39:43.912Z,41.50
2023-02-02T05:44:51.075Z,41.17
2023-02-02T05:49:57.683Z,41.57
2023-02-02T05:55:05.429Z,42.25
2023-02-02T06:00:13.538Z,41.07
2023-02-02T06:05:20.143Z,41.47
2023-02-02T06:10:28.310Z,41.15
2023-02-02T06:15:36.149Z,40.75
2023-02-02T06:20:47.783Z,41.67
2023-02-02T06:25:55.879Z,40.97
2023-02-02T06:31:13.578Z,41.47
2023-02-02T06:36:20.761Z,41.85
2023-02-02T06:41:30.167Z,41.10
2023-02-02T06:46:37.257Z,41.30
2023-02-02T06:51:44.362Z,41.50
2023-02-02T06:56:53.269Z,42.00
2023-02-02T07:01:59.907Z,41.27
2023-02-02T07:07:07.760Z,41.90
2023-02-02T07:12:15.380Z,41.87
2023-02-02T07:17:24.493Z,41.00
2023-02-02T07:22:31.692Z,41.60
2023-02-02T07:27:38.952Z,40.50
2023-02-02T07:32:50.762Z,41.17
2023-02-02T07:37:58.752Z,40.88
2023-02-02T07:43:06.417Z,41.40
2023-02-02T07:48:14.379Z,41.50
2023-02-02T07:53:24.725Z,41.68
2023-02-02T07:58:32.471Z,41.53
2023-02-02T08:03:41.328Z,41.70
2023-02-02T08:08:49.866Z,42.10
2023-02-02T08:14:00.455Z,41.70
2023-02-02T08:19:08.004Z,41.33
2023-02-02T08:24:17.279Z,41.70
2023-02-02T08:29:27.460Z,41.48
2023-02-02T08:34:37.012Z,40.80
2023-02-02T08:39:44.410Z,41.03
2023-02-02T08:46:00.250Z,40.93
2023-02-02T08:50:00.561Z,40.57
2023-02-02T08:55:08.305Z,40.87
2023-02-02T09:00:17.560Z,41.43
2023-02-02T09:05:25.637Z,41.73
2023-02-02T09:10:32.802Z,40.73
2023-02-02T09:15:40.425Z,41.10
2023-02-02T09:20:47.453Z,40.60
2023-02-02T09:25:54.893Z,41.50
2023-02-02T09:31:06.543Z,41.10
2023-02-02T09:36:22.378Z,41.43
2023-02-02T09:41:45.705Z,41.13
2023-02-02T09:47:22.231Z,40.88
2023-02-02T09:52:44.038Z,40.90
2023-02-02T09:57:59.664Z,41.30
2023-02-02T10:03:16.795Z,42.67
2023-02-02T10:08:35.077Z,41.20
2023-02-02T10:19:06.991Z,42.00
2023-02-02T10:24:23.871Z,41.33
2023-02-02T10:30:01.433Z,41.30
2023-02-02T10:41:06.725Z,41.73
2023-02-02T10:46:24.283Z,40.97
2023-02-02T10:51:32.915Z,41.33
2023-02-02T10:56:52.452Z,41.10
2023-02-02T11:02:08.627Z,41.27
2023-02-02T11:07:09.220Z,40.73
2023-02-02T11:12:39.033Z,41.88
2023-02-02T11:17:45.758Z,42.10
2023-02-02T11:23:05.482Z,41.28
2023-02-02T11:28:25.061Z,41.27
2023-02-02T11:33:36.105Z,41.07
2023-02-02T11:38:42.909Z,41.03
2023-02-02T11:43:58.051Z,41.50
2023-02-02T11:49:17.441Z,41.23
2023-02-02T11:54:30.609Z,41.70
2023-02-02T11:59:43.781Z,42.30
2023-02-02T12:04:57.663Z,42.20
2023-02-02T12:10:09.933Z,41.83
2023-02-02T12:15:52.452Z,42.58
2023-02-02T12:21:19.328Z,42.10
2023-02-02T12:26:37.847Z,41.92
2023-02-02T12:32:21.842Z,41.87
2023-02-02T12:37:38.876Z,41.42
2023-02-02T12:43:00.663Z,41.27
2023-02-02T12:48:21.194Z,42.57
2023-02-02T12:53:38.637Z,41.48
2023-02-02T12:59:06.826Z,41.77
2023-02-02T13:05:04.857Z,41.07
2023-02-02T13:15:43.105Z,41.00
2023-02-02T13:21:06.290Z,41.73
2023-02-02T13:26:24.820Z,41.80
2023-02-02T13:31:52.033Z,41.83
2023-02-02T13:37:06.620Z,41.30
2023-02-02T13:42:27.922Z,41.60
2023-02-02T13:47:49.449Z,41.63
2023-02-02T13:53:23.013Z,41.50
2023-02-02T13:58:34.890Z,41.73
2023-02-02T14:03:45.527Z,42.30
2023-02-02T14:09:04.453Z,41.40
2023-02-02T14:14:40.548Z,42.00
2023-02-02T14:19:59.816Z,41.30
2023-02-02T14:25:34.447Z,41.57
2023-02-02T14:30:42.419Z,41.77
2023-02-02T14:35:54.535Z,41.37
2023-02-02T14:41:24.154Z,42.13
2023-02-02T14:46:41.643Z,41.63
2023-02-02T14:51:55.487Z,41.63
2023-02-02T14:57:13.971Z,40.93
2023-02-02T15:02:32.837Z,41.85
2023-02-02T15:07:53.506Z,41.87
2023-02-02T15:13:10.871Z,41.80
2023-02-02T15:18:26.298Z,41.47
2023-02-02T15:23:43.031Z,41.75
2023-02-02T15:34:41.214Z,43.80
2023-02-02T15:39:58.729Z,31.07
2023-02-02T15:45:07.634Z,42.63
2023-02-02T15:50:23.116Z,44.10
2023-02-02T15:55:37.497Z,41.63
2023-02-02T16:00:45.197Z,42.27
2023-02-02T16:05:57.849Z,43.10
2023-02-02T16:11:15.581Z,43.00
2023-02-02T16:16:29.520Z,46.03
2023-02-02T16:21:42.391Z,54.20
2023-02-02T16:26:52.402Z,61.95
2023-02-02T16:31:59.940Z,56.00
2023-02-02T16:37:10.551Z,50.88
2023-02-02T16:42:32.627Z,49.73
2023-02-02T16:47:41.075Z,44.93
2023-02-02T16:53:06.601Z,47.43
2023-02-02T16:58:17.773Z,45.97
2023-02-02T17:03:28.309Z,45.50
2023-02-02T17:08:38.800Z,44.00
2023-02-02T17:13:46.148Z,43.60
2023-02-02T17:18:54.553Z,43.20
2023-02-02T17:24:01.393Z,43.17
2023-02-02T17:29:09.969Z,41.70
2023-02-02T17:34:18.816Z,42.83
2023-02-02T17:39:26.211Z,42.43
2023-02-02T17:44:34.418Z,42.30
2023-02-02T17:49:42.202Z,43.13
2023-02-02T17:54:49.445Z,42.37
2023-02-02T17:59:56.658Z,43.60
2023-02-02T18:05:05.749Z,43.63
2023-02-02T18:10:15.751Z,42.40
2023-02-02T18:15:23.607Z,41.40
2023-02-02T18:20:30.831Z,40.57
2023-02-02T18:25:39.667Z,43.27
2023-02-02T18:30:48.522Z,42.83
2023-02-02T18:35:56.502Z,42.13
2023-02-02T18:41:04.450Z,42.10
2023-02-02T18:46:15.534Z,44.00
2023-02-02T18:51:22.804Z,41.23
2023-02-02T18:56:31.652Z,42.23
2023-02-02T19:01:39.027Z,42.57
2023-02-02T19:07:06.109Z,45.90
2023-02-02T19:12:15.545Z,42.97
2023-02-02T19:17:27.820Z,41.48
2023-02-02T19:22:35.205Z,41.30
2023-02-02T19:27:43.642Z,41.70
2023-02-02T19:32:50.645Z,43.10
2023-02-02T19:38:02.051Z,42.70
2023-02-02T19:43:16.484Z,50.53
2023-02-02T19:48:27.537Z,43.17
2023-02-02T19:53:40.835Z,44.37
2023-02-02T19:58:48.379Z,43.30
2023-02-02T20:04:00.283Z,42.23
2023-02-02T20:09:13.410Z,42.60
2023-02-02T20:14:30.372Z,41.45
2023-02-02T20:19:41.733Z,41.90
2023-02-02T20:24:51.119Z,41.98
2023-02-02T20:30:01.854Z,42.10
2023-02-02T20:35:40.651Z,41.77
2023-02-02T20:40:48.898Z,42.10
2023-02-02T20:45:56.624Z,42.17
2023-02-02T20:51:04.327Z,42.57
2023-02-02T20:56:11.631Z,42.23
2023-02-02T21:01:20.030Z,41.80
2023-02-02T21:06:28.788Z,43.03
2023-02-02T21:11:36.410Z,41.85
2023-02-02T21:16:43.012Z,42.80
2023-02-02T21:21:49.897Z,41.67
2023-02-02T21:26:58.372Z,42.53
2023-02-02T21:32:09.128Z,41.00
2023-02-02T21:37:18.118Z,44.57
2023-02-02T21:42:28.042Z,41.83
2023-02-02T21:47:45.306Z,43.28
2023-02-02T21:52:52.506Z,43.38
2023-02-02T21:58:18.587Z,41.73
2023-02-02T22:03:38.465Z,41.53
2023-02-02T22:08:45.673Z,40.77
2023-02-02T22:13:55.799Z,40.47
2023-02-02T22:19:03.724Z,41.03
2023-02-02T22:24:14.606Z,42.37
2023-02-02T22:29:24.168Z,43.10
2023-02-02T22:34:31.925Z,54.30
2023-02-02T22:39:40.334Z,42.73
2023-02-02T22:44:47.812Z,42.20
2023-02-02T22:49:55.385Z,41.37
2023-02-02T22:55:02.933Z,41.40
2023-02-02T23:00:14.231Z,41.50
2023-02-02T23:05:22.135Z,40.80
2023-02-02T23:10:31.731Z,41.57
2023-02-02T23:15:39.609Z,41.77
2023-02-02T23:20:48.251Z,42.70
2023-02-02T23:25:56.553Z,41.10
2023-02-02T23:31:03.607Z,41.27
2023-02-02T23:36:11.105Z,41.57
2023-02-02T23:41:19.558Z,41.10
2023-02-02T23:46:27.497Z,41.50
2023-02-02T23:51:35.042Z,41.50
2023-02-02T23:56:42.799Z,40.93
